createdAt,value
2022-11-04T00:01:04.453Z,101277.91
2022-11-04T00:06:02.088Z,101397.31
2022-11-04T00:11:17.793Z,101408.16
2022-11-04T00:16:36.050Z,101308.78
2022-11-04T00:21:51.055Z,101372.44
2022-11-04T00:27:06.122Z,101395.06
2022-11-04T00:32:22.138Z,101387.16
2022-11-04T00:37:19.334Z,101388.19
2022-11-04T00:42:17.292Z,101378.25
2022-11-04T00:47:15.243Z,101337.03
2022-11-04T00:52:12.276Z,101278.28
2022-11-04T00:57:09.957Z,101364.25
2022-11-04T01:02:10.318Z,101343.91
2022-11-04T01:07:08.328Z,101371.56
2022-11-04T01:12:05.675Z,101350.97
2022-11-04T01:17:02.632Z,101323.78
2022-11-04T01:21:59.551Z,101314.47
2022-11-04T01:26:57.213Z,101297.16
2022-11-04T01:31:54.236Z,101302.56
2022-11-04T01:36:51.294Z,101357.28
2022-11-04T01:41:48.699Z,101286.72
2022-11-04T01:46:49.866Z,101299.38
2022-11-04T01:51:49.603Z,101318.28
2022-11-04T01:56:48.362Z,101270.81
2022-11-04T02:01:47.301Z,101303.44
2022-11-04T02:06:45.726Z,101307.38
2022-11-04T02:12:00.652Z,101300.97
2022-11-04T02:17:05.919Z,101256.38
2022-11-04T02:22:35.994Z,101231.16
2022-11-04T02:28:01.295Z,101261.63
2022-11-04T02:33:17.894Z,101276.91
2022-11-04T02:38:26.551Z,101272.03
2022-11-04T02:43:27.338Z,101244.19
2022-11-04T02:48:36.481Z,101213.75
2022-11-04T02:53:40.878Z,101280.88
2022-11-04T02:58:44.389Z,101282.72
2022-11-04T03:03:48.308Z,101226.72
2022-11-04T03:08:48.554Z,101225.25
2022-11-04T03:13:50.022Z,101212.16
2022-11-04T03:18:59.195Z,101231.31
2022-11-04T03:23:56.171Z,101244.00
2022-11-04T03:29:07.203Z,101237.75
2022-11-04T03:34:04.956Z,101245.56
2022-11-04T03:39:02.260Z,101179.69
2022-11-04T03:43:59.520Z,101161.63
2022-11-04T03:49:10.573Z,101239.59
2022-11-04T03:54:08.851Z,101234.56
2022-11-04T03:59:23.748Z,101230.44
2022-11-04T04:04:27.550Z,101200.31
2022-11-04T04:09:31.534Z,101225.81
2022-11-04T04:14:39.495Z,101217.34
2022-11-04T04:19:37.597Z,101248.53
2022-11-04T04:24:55.696Z,101202.38
2022-11-04T04:29:53.994Z,101232.44
2022-11-04T04:35:11.196Z,101250.56
2022-11-04T04:40:33.862Z,101268.47
2022-11-04T04:45:34.888Z,101223.03
2022-11-04T04:50:41.027Z,101251.41
2022-11-04T04:55:41.805Z,101227.78
2022-11-04T05:00:39.677Z,101184.94
2022-11-04T05:05:41.626Z,101171.91
2022-11-04T05:10:39.630Z,101222.69
2022-11-04T05:15:36.689Z,101240.25
2022-11-04T05:20:37.882Z,101237.28
2022-11-04T05:25:36.743Z,101174.72
2022-11-04T05:30:35.940Z,101274.81
2022-11-04T05:35:33.481Z,101291.19
2022-11-04T05:40:30.535Z,101239.72
2022-11-04T05:45:29.143Z,101285.84
2022-11-04T05:50:27.797Z,101240.09
2022-11-04T05:55:25.542Z,101278.09
2022-11-04T06:00:25.827Z,101293.25
2022-11-04T06:05:22.677Z,101249.22
2022-11-04T06:10:26.345Z,101258.75
2022-11-04T06:15:25.754Z,101243.34
2022-11-04T06:20:22.741Z,101187.91
2022-11-04T06:25:20.362Z,101270.88
2022-11-04T06:30:19.405Z,101246.34
2022-11-04T06:35:16.796Z,101141.75
2022-11-04T06:40:14.982Z,101257.16
2022-11-04T06:45:12.880Z,101234.00
2022-11-04T06:50:11.049Z,101157.19
2022-11-04T06:55:09.730Z,101249.59
2022-11-04T07:00:08.401Z,101208.75
2022-11-04T07:05:07.623Z,101257.81
2022-11-04T07:10:05.714Z,101221.31
2022-11-04T07:15:02.741Z,101192.97
2022-11-04T07:19:59.773Z,101232.75
2022-11-04T07:24:57.883Z,101215.88
2022-11-04T07:29:54.835Z,101175.56
2022-11-04T07:34:51.781Z,101165.09
2022-11-04T07:39:48.864Z,101204.50
2022-11-04T07:44:47.270Z,101199.81
2022-11-04T07:49:44.949Z,101095.94
2022-11-04T07:54:42.001Z,101201.53
2022-11-04T07:59:39.158Z,101180.81
2022-11-04T08:04:37.088Z,101204.84
2022-11-04T08:09:35.928Z,101163.53
2022-11-04T08:14:33.069Z,101086.72
2022-11-04T08:19:30.804Z,101183.88
2022-11-04T08:24:28.453Z,101191.41
2022-11-04T08:29:25.719Z,101171.19
2022-11-04T08:34:22.670Z,101147.47
2022-11-04T08:39:22.227Z,101141.00
2022-11-04T08:44:20.513Z,101147.59
2022-11-04T08:49:21.046Z,101163.53
2022-11-04T08:54:18.401Z,101158.53
2022-11-04T08:59:15.470Z,101089.22
2022-11-04T09:04:13.474Z,101111.31
2022-11-04T09:09:14.401Z,101032.34
2022-11-04T09:14:11.896Z,101127.81
2022-11-04T09:19:09.537Z,101128.91
2022-11-04T09:24:12.094Z,101085.66
2022-11-04T09:29:09.874Z,101024.81
2022-11-04T09:34:09.754Z,101076.47
2022-11-04T09:39:07.681Z,101108.91
2022-11-04T09:44:14.350Z,101092.47
2022-11-04T09:49:13.526Z,101093.91
2022-11-04T09:54:18.513Z,101090.03
2022-11-04T09:59:26.222Z,101080.72
2022-11-04T10:04:31.744Z,101071.31
2022-11-04T10:09:46.981Z,101035.47
2022-11-04T10:15:09.462Z,100999.66
2022-11-04T10:20:23.220Z,101017.38
2022-11-04T10:25:24.047Z,101001.09
2022-11-04T10:30:23.254Z,100992.13
2022-11-04T10:35:29.793Z,100990.00
2022-11-04T10:40:31.878Z,100973.72
2022-11-04T10:45:41.381Z,100946.50
2022-11-04T10:50:42.866Z,100987.06
2022-11-04T10:55:49.257Z,100952.09
2022-11-04T11:00:46.243Z,100912.44
2022-11-04T11:05:43.165Z,100968.81
2022-11-04T11:11:09.066Z,100913.00
2022-11-04T11:16:37.458Z,100955.84
2022-11-04T11:22:11.309Z,100888.34
2022-11-04T11:27:25.825Z,100935.75
2022-11-04T11:33:36.353Z,100895.09
2022-11-04T11:39:08.136Z,100911.66
2022-11-04T11:44:33.220Z,100863.31
2022-11-04T11:49:46.918Z,100900.81
2022-11-04T11:55:03.987Z,100815.88
2022-11-04T12:00:40.182Z,100811.47
2022-11-04T12:11:18.113Z,100867.72
2022-11-04T12:16:34.058Z,100847.44
2022-11-04T12:21:49.656Z,100847.19
2022-11-04T12:27:15.971Z,100836.56
2022-11-04T12:32:28.079Z,100820.03
2022-11-04T12:37:39.125Z,100765.75
2022-11-04T12:42:45.249Z,100809.16
2022-11-04T12:47:45.562Z,100848.00
2022-11-04T12:53:14.683Z,100816.19
2022-11-04T12:58:29.194Z,100817.56
2022-11-04T13:03:34.860Z,100793.94
2022-11-04T13:08:42.924Z,100786.34
2022-11-04T13:13:40.741Z,100808.84
2022-11-04T13:18:43.205Z,100809.28
2022-11-04T13:23:46.086Z,100797.91
2022-11-04T13:28:48.183Z,100785.97
2022-11-04T13:33:53.997Z,100753.94
2022-11-04T13:38:54.121Z,100736.22
2022-11-04T13:43:53.492Z,100780.31
2022-11-04T13:49:05.225Z,100732.91
2022-11-04T13:54:06.380Z,100773.13
2022-11-04T13:59:17.257Z,100796.44
2022-11-04T14:04:31.102Z,100742.28
2022-11-04T14:09:52.298Z,100789.13
2022-11-04T14:14:54.480Z,100760.94
2022-11-04T14:19:59.414Z,100777.25
2022-11-04T14:24:58.398Z,100709.47
2022-11-04T14:30:00.126Z,100745.97
2022-11-04T14:35:02.872Z,100762.09
2022-11-04T14:40:02.196Z,100709.03
2022-11-04T14:45:00.891Z,100671.53
2022-11-04T14:50:08.060Z,100749.75
2022-11-04T14:55:08.466Z,100709.53
2022-11-04T15:00:28.546Z,100747.44
2022-11-04T15:05:28.541Z,100741.06
2022-11-04T15:10:29.254Z,100684.69
2022-11-04T15:15:29.670Z,100749.75
2022-11-04T15:20:30.709Z,100739.25
2022-11-04T15:25:28.692Z,100718.63
2022-11-04T15:30:31.073Z,100722.66
2022-11-04T15:35:31.931Z,100704.28
2022-11-04T15:40:47.033Z,100715.44
2022-11-04T15:45:51.753Z,100646.66
2022-11-04T15:50:55.063Z,100673.44
2022-11-04T15:55:55.912Z,100707.13
2022-11-04T16:00:57.163Z,100670.94
2022-11-04T16:06:04.055Z,100743.88
2022-11-04T16:11:17.156Z,100650.47
2022-11-04T16:16:23.527Z,100672.28
2022-11-04T16:21:27.578Z,100665.31
2022-11-04T16:26:34.440Z,100718.41
2022-11-04T16:31:35.597Z,100723.97
2022-11-04T16:36:38.094Z,100718.19
2022-11-04T16:41:40.812Z,100701.94
2022-11-04T16:46:41.196Z,100686.47
2022-11-04T16:51:40.683Z,100719.56
2022-11-04T16:56:57.095Z,100746.22
2022-11-04T17:01:57.784Z,100725.31
2022-11-04T17:06:56.542Z,100731.31
2022-11-04T17:11:55.730Z,100700.81
2022-11-04T17:16:52.858Z,100750.41
2022-11-04T17:21:54.943Z,100752.22
2022-11-04T17:26:56.890Z,100699.50
2022-11-04T17:31:58.606Z,100701.81
2022-11-04T17:36:56.908Z,100676.81
2022-11-04T17:42:21.792Z,100744.66
2022-11-04T17:47:22.045Z,100737.53
2022-11-04T17:52:19.613Z,100666.72
2022-11-04T17:57:18.156Z,100692.94
2022-11-04T18:02:18.117Z,100656.84
2022-11-04T18:07:18.625Z,100719.53
2022-11-04T18:12:34.389Z,100712.91
2022-11-04T18:17:32.075Z,100718.22
2022-11-04T18:22:29.402Z,100689.38
2022-11-04T18:27:27.417Z,100713.16
2022-11-04T18:32:25.110Z,100692.63
2022-11-04T18:37:22.731Z,100710.50
2022-11-04T18:42:19.858Z,100717.38
2022-11-04T18:47:20.127Z,100693.13
2022-11-04T18:52:18.795Z,100612.13
2022-11-04T18:57:16.059Z,100675.25
2022-11-04T19:02:19.631Z,100703.25
2022-11-04T19:07:21.372Z,100680.31
2022-11-04T19:12:36.785Z,100668.94
2022-11-04T19:17:36.919Z,100706.31
2022-11-04T19:22:37.643Z,100675.22
2022-11-04T19:27:37.341Z,100644.56
2022-11-04T19:32:34.952Z,100653.22
2022-11-04T19:37:35.926Z,100597.31
2022-11-04T19:42:51.552Z,100632.38
2022-11-04T19:47:48.667Z,100694.66
2022-11-04T19:52:48.423Z,100730.03
2022-11-04T19:57:48.767Z,100700.34
2022-11-04T20:02:46.435Z,100627.97
2022-11-04T20:07:43.721Z,100694.53
2022-11-04T20:12:59.782Z,100717.97
2022-11-04T20:17:56.934Z,100683.44
2022-11-04T20:22:54.266Z,100706.75
2022-11-04T20:27:57.012Z,100746.91
2022-11-04T20:32:54.177Z,100650.97
2022-11-04T20:37:51.355Z,100707.81
2022-11-04T20:42:54.734Z,100682.38
2022-11-04T20:47:53.313Z,100712.44
2022-11-04T20:52:50.333Z,100636.63
2022-11-04T20:57:50.221Z,100728.25
2022-11-04T21:02:48.232Z,100714.38
2022-11-04T21:07:47.297Z,100737.75
2022-11-04T21:12:44.735Z,100700.19
2022-11-04T21:17:45.162Z,100617.84
2022-11-04T21:22:43.325Z,100620.84
2022-11-04T21:27:40.516Z,100700.53
2022-11-04T21:32:39.432Z,100676.75
2022-11-04T21:37:37.281Z,100676.00
2022-11-04T21:42:38.299Z,100624.78
2022-11-04T21:47:37.737Z,100635.41
2022-11-04T21:52:34.894Z,100668.34
2022-11-04T21:57:32.189Z,100625.16
2022-11-04T22:02:38.391Z,100723.66
2022-11-04T22:07:56.378Z,100670.03
2022-11-04T22:12:54.870Z,100702.75
2022-11-04T22:17:53.022Z,100692.34
2022-11-04T22:22:50.085Z,100597.97
2022-11-04T22:27:50.381Z,100712.59
2022-11-04T22:32:50.480Z,100683.34
2022-11-04T22:37:48.746Z,100643.72
2022-11-04T22:42:45.876Z,100666.78
2022-11-04T22:47:43.345Z,100677.50
2022-11-04T22:52:42.934Z,100648.75
2022-11-04T22:57:44.093Z,100618.00
2022-11-04T23:02:41.573Z,100645.72
2022-11-04T23:07:38.842Z,100574.63
2022-11-04T23:12:54.107Z,100634.16
2022-11-04T23:18:10.422Z,100596.28
2022-11-04T23:23:25.403Z,100643.31
2022-11-04T23:28:40.643Z,100633.59
2022-11-04T23:33:56.309Z,100648.72
2022-11-04T23:38:52.992Z,100679.09
2022-11-04T23:43:51.743Z,100667.06
2022-11-04T23:49:07.910Z,100693.06
2022-11-04T23:54:23.263Z,100630.31
2022-11-04T23:59:38.695Z,100575.50
